KPNS/PNS METAR and TAF weather

Enter ICAO airport designator
Station Type Date Time Source
KPNS METAR 2021/09/16 10:53 UTC NOAA

KPNS 161053Z AUTO 16006KT 10SM -RA BKN014 OVC023 27/25 A2985 RMK AO2 RAB32 SLP110 P0004 T02670250


Station Type Date Time Source
KPNS Decoded METAR 2021/09/16 10:53 UTC NOAA

PENSACOLA REGIONAL AIRPORT, FL, United States (KPNS) 30-29N 087-11W 38M
Sep 16, 2021 - 06:53 AM EDT / 2021.09.16 1053 UTC
Wind: from the SSE (160 degrees) at 7 MPH (6 KT):0
Visibility: 10 mile(s):0
Sky conditions: overcast
Weather: light rain
Precipitation last hour: 0.04 inches
Temperature: 80.1 F (26.7 C)
Dew Point: 77.0 F (25.0 C)
Relative Humidity: 90%
Pressure (altimeter): 29.85 in. Hg (1010 hPa)
ob: KPNS 161053Z AUTO 16006KT 10SM -RA BKN014 OVC023 27/25 A2985 RMK AO2 RAB32 SLP110 P0004 T02670250
cycle: 11

Station Type Date Time Source
KPNS TAF 2021/09/16 12:22 UTC NOAA

TAF KPNS 161120Z 1612/1712 16006KT 6SM -SHRA BR BKN015 OVC020
FM161500 16009KT 6SM -SHRA BR FEW010 OVC020
FM161800 15010KT 4SM SHRA BR VCTS FEW010CB OVC030
FM170000 16008KT 6SM -SHRA BR BKN035
FM170600 18006KT 6SM -SHRA BR BKN030

Example: see airport list